Time;durP1;ratioP1;P1;durP2;ratioP2;P2;SDS_P1;SDS_P2;PMS_P1;PMS_P2;Temp;Humidity;BMP_temperature;BMP_pressure;BME280_temperature;BME280_humidity;BME280_pressure;Samples;Min_cycle;Max_cycle;Signal;HPM_P1;HPM_P2
2023/09/18 00:01:05;;;;;;;12.40;4.97;;;17.10;99.90;;;;;;4996244;23;20380;-66
2023/09/18 00:03:34;;;;;;;11.20;5.07;;;17.10;99.90;;;;;;4988098;28;20034;-65
2023/09/18 00:06:00;;;;;;;;;;;17.10;99.90;;;;;;4973765;28;20042;-65
2023/09/18 00:08:44;;;;;;;12.68;5.95;;;17.00;99.90;;;;;;4998128;28;20001;-66
2023/09/18 00:11:11;;;;;;;;;;;17.00;99.90;;;;;;4990384;28;20125;-67
2023/09/18 00:13:40;;;;;;;11.40;5.05;;;17.00;99.90;;;;;;5002598;23;20004;-66
2023/09/18 00:19:41;;;;;;;7.93;4.88;;;17.00;99.90;;;;;;4860125;29;19919;-66
2023/09/18 00:22:35;;;;;;;8.73;5.00;;;16.80;99.90;;;;;;4826523;29;20097;-67
2023/09/18 00:25:21;;;;;;;12.15;5.82;;;16.80;99.90;;;;;;4893439;29;20111;-65
2023/09/18 00:27:53;;;;;;;7.40;4.35;;;16.80;99.90;;;;;;4875871;29;20611;-65
2023/09/18 00:30:22;;;;;;;17.85;5.80;;;16.80;99.90;;;;;;4911572;28;20058;-66
2023/09/18 00:32:49;;;;;;;;;;;16.70;99.90;;;;;;4970138;28;20085;-65
2023/09/18 00:35:16;;;;;;;13.23;4.53;;;16.70;99.90;;;;;;4978205;28;19937;-66
2023/09/18 00:37:54;;;;;;;14.05;5.10;;;16.80;99.90;;;;;;4959410;28;20199;-66
2023/09/18 00:40:27;;;;;;;10.23;4.95;;;16.70;99.90;;;;;;4970495;28;20053;-65
2023/09/18 00:43:00;;;;;;;12.57;5.20;;;16.60;99.90;;;;;;4956644;28;20042;-66
2023/09/18 00:49:06;;;;;;;13.75;5.05;;;16.70;99.90;;;;;;4933259;28;20048;-66
2023/09/18 00:51:40;;;;;;;10.98;5.20;;;16.70;99.90;;;;;;4918961;28;20079;-66
2023/09/18 00:54:07;;;;;;;14.35;5.35;;;16.70;99.90;;;;;;4946297;28;20058;-67
2023/09/18 01:00:23;;;;;;;16.73;5.25;;;16.90;99.90;;;;;;4876585;28;20106;-66
2023/09/18 01:02:59;;;;;;;;;;;16.90;99.90;;;;;;5007074;23;21037;-66
2023/09/18 01:05:53;;;;;;;12.80;3.95;;;17.00;99.90;;;;;;4985751;28;19925;-65
2023/09/18 01:08:57;;;;;;;;;;;;;;;;;;;;;
2023/09/18 01:12:17;;;;;;;8.35;5.15;;;17.10;99.90;;;;;;4998610;28;20073;-66
2023/09/18 01:15:14;;;;;;;8.25;3.90;;;17.00;99.90;;;;;;4950826;28;20099;-66
2023/09/18 01:17:40;;;;;;;11.88;4.53;;;17.10;99.90;;;;;;5007776;28;20529;-65
2023/09/18 01:20:13;;;;;;;12.57;5.30;;;17.10;99.90;;;;;;5007166;28;20059;-68
2023/09/18 01:23:31;;;;;;;11.85;4.72;;;17.10;99.90;;;;;;4968005;28;20045;-65
2023/09/18 01:26:03;;;;;;;14.02;4.72;;;17.10;99.90;;;;;;4996557;28;20392;-65
2023/09/18 01:28:47;;;;;;;6.13;4.28;;;17.00;99.90;;;;;;5003291;28;20320;-65
2023/09/18 01:31:31;;;;;;;8.35;4.78;;;17.10;99.90;;;;;;4995919;28;20571;-66
2023/09/18 01:33:57;;;;;;;;;;;17.10;99.90;;;;;;5002559;28;20075;-66
2023/09/18 01:36:24;;;;;;;9.65;5.97;;;17.00;99.90;;;;;;5006555;28;20300;-66
2023/09/18 01:38:51;;;;;;;9.95;4.95;;;17.00;99.90;;;;;;4999507;28;20050;-67
2023/09/18 01:41:17;;;;;;;9.20;4.47;;;17.10;99.90;;;;;;4987816;28;20033;-65
2023/09/18 01:43:42;;;;;;;;;;;17.10;99.90;;;;;;4989422;28;20092;-66
2023/09/18 01:46:08;;;;;;;7.75;3.85;;;17.10;99.90;;;;;;4987774;28;19921;-66
2023/09/18 01:48:33;;;;;;;16.75;4.90;;;17.10;99.90;;;;;;4994509;28;20418;-66
2023/09/18 01:50:59;;;;;;;10.05;4.57;;;17.20;99.90;;;;;;4992361;28;20145;-66
2023/09/18 01:53:26;;;;;;;10.13;4.70;;;17.40;99.90;;;;;;5006870;28;20049;-66
2023/09/18 01:55:53;;;;;;;6.63;4.68;;;17.70;99.90;;;;;;5010778;28;20781;-65
2023/09/18 01:58:27;;;;;;;9.88;4.90;;;17.80;99.90;;;;;;4998974;28;20041;-66
2023/09/18 02:00:53;;;;;;;9.10;4.75;;;17.90;99.90;;;;;;4977076;28;20045;-67
2023/09/18 02:03:41;;;;;;;10.60;4.85;;;17.90;99.90;;;;;;4980813;28;20092;-67
2023/09/18 02:08:43;;;;;;;11.52;5.00;;;18.10;99.90;;;;;;5011253;23;20070;-66
2023/09/18 02:11:08;;;;;;;;;;;18.00;99.90;;;;;;4976692;28;20042;-65
2023/09/18 02:13:43;;;;;;;8.77;4.60;;;18.00;99.90;;;;;;4977529;28;19925;-67
2023/09/18 02:16:15;;;;;;;;;;;18.00;99.90;;;;;;4973470;28;20417;-67
2023/09/18 02:22:16;;;;;;;;;;;18.00;99.90;;;;;;4996935;28;20259;-67
2023/09/18 02:24:43;;;;;;;9.00;4.85;;;18.00;99.90;;;;;;4966979;28;20324;-66
2023/09/18 02:27:11;;;;;;;;;;;18.10;99.90;;;;;;4974445;28;20050;-67
2023/09/18 02:29:37;;;;;;;11.40;4.47;;;18.10;99.90;;;;;;4977519;28;19960;-68
2023/09/18 02:32:16;;;;;;;13.80;5.25;;;18.10;99.90;;;;;;4986105;28;20045;-66
2023/09/18 02:34:43;;;;;;;8.43;4.95;;;18.10;99.90;;;;;;4986000;28;20145;-65
2023/09/18 02:37:09;;;;;;;9.25;5.18;;;18.10;99.90;;;;;;4950419;28;20066;-66
2023/09/18 02:39:34;;;;;;;;;;;18.10;99.90;;;;;;4953781;28;20287;-66
2023/09/18 02:42:14;;;;;;;7.13;4.32;;;18.00;99.90;;;;;;4965001;28;19961;-66
2023/09/18 02:44:50;;;;;;;9.93;4.05;;;18.00;99.90;;;;;;4917218;29;20709;-65
2023/09/18 02:47:37;;;;;;;;;;;17.90;99.90;;;;;;4911387;29;20042;-66
2023/09/18 02:50:17;;;;;;;9.50;4.80;;;17.80;99.90;;;;;;4906261;29;19985;-66
2023/09/18 02:53:05;;;;;;;12.02;4.60;;;17.80;99.90;;;;;;4905594;29;20136;-67
2023/09/18 02:55:56;;;;;;;10.82;4.93;;;17.80;99.90;;;;;;4904294;29;20054;-67
2023/09/18 02:58:40;;;;;;;6.55;4.50;;;17.80;99.90;;;;;;4907123;29;20725;-67
2023/09/18 03:01:11;;;;;;;11.40;4.97;;;17.70;99.90;;;;;;4920733;28;20039;-66
2023/09/18 03:03:37;;;;;;;;;;;17.80;99.90;;;;;;4948657;28;20046;-66
2023/09/18 03:06:15;;;;;;;11.30;4.82;;;17.80;99.90;;;;;;4960342;28;19926;-67
2023/09/18 03:08:44;;;;;;;9.25;4.30;;;17.70;99.90;;;;;;4932938;28;20413;-67
2023/09/18 03:11:16;;;;;;;10.68;4.82;;;17.70;99.90;;;;;;4956504;28;20042;-66
2023/09/18 03:14:23;;;;;;;6.78;4.28;;;17.70;99.90;;;;;;4939497;28;20148;-65
2023/09/18 03:19:52;;;;;;;8.68;4.13;;;17.80;99.90;;;;;;4955919;28;20043;-66
2023/09/18 03:22:18;;;;;;;;;;;17.80;99.90;;;;;;4956129;28;20059;-66
2023/09/18 03:24:53;;;;;;;7.65;4.25;;;17.80;99.90;;;;;;4939707;28;19918;-66
2023/09/18 03:27:28;;;;;;;7.47;3.78;;;17.80;99.90;;;;;;4975952;28;20062;-65
2023/09/18 03:30:31;;;;;;;6.45;4.72;;;18.00;99.90;;;;;;4971780;28;20101;-65
2023/09/18 03:33:08;;;;;;;7.40;4.13;;;18.10;99.90;;;;;;4958163;28;20050;-67
2023/09/18 03:35:48;;;;;;;6.18;3.58;;;18.20;99.90;;;;;;4955267;28;20094;-67
2023/09/18 03:38:21;;;;;;;6.22;3.67;;;18.40;99.90;;;;;;4985979;28;20162;-66
2023/09/18 03:44:09;;;;;;;5.35;3.72;;;18.70;99.90;;;;;;4963070;28;20049;-68
2023/09/18 03:46:46;;;;;;;6.50;4.13;;;18.80;99.90;;;;;;4970517;28;20050;-69
2023/09/18 03:50:06;;;;;;;5.70;3.75;;;18.90;99.90;;;;;;4953977;28;20133;-68
2023/09/18 03:52:38;;;;;;;6.13;3.47;;;18.90;99.90;;;;;;4929702;28;20034;-67
2023/09/18 03:59:02;;;;;;;6.55;3.72;;;19.00;99.90;;;;;;4867645;29;20583;-66
2023/09/18 04:01:58;;;;;;;6.28;3.40;;;18.90;99.90;;;;;;4812945;29;20515;-66
2023/09/18 04:04:56;;;;;;;7.22;4.05;;;18.90;99.90;;;;;;4941333;28;20051;-67
2023/09/18 04:07:25;;;;;;;8.18;4.03;;;18.90;99.90;;;;;;4943061;28;20046;-66
2023/09/18 04:09:56;;;;;;;6.68;3.70;;;18.90;99.90;;;;;;4935665;28;20039;-66
2023/09/18 04:12:22;;;;;;;;;;;18.90;99.90;;;;;;4957241;28;20050;-66
2023/09/18 04:14:54;;;;;;;8.48;3.72;;;18.90;99.90;;;;;;4944985;28;19972;-66
2023/09/18 04:17:23;;;;;;;7.75;3.63;;;18.90;99.90;;;;;;4941682;28;20047;-67
2023/09/18 04:20:09;;;;;;;6.63;3.40;;;18.80;99.90;;;;;;4944224;28;20057;-66
2023/09/18 04:23:13;;;;;;;;;;;;;;;;;;;;;
2023/09/18 04:26:05;;;;;;;10.63;4.07;;;18.80;99.90;;;;;;4934178;28;20418;-67
2023/09/18 04:29:04;;;;;;;14.63;4.70;;;18.70;99.90;;;;;;4952778;28;20498;-67
2023/09/18 04:31:37;;;;;;;9.65;4.40;;;18.70;99.90;;;;;;4952256;28;20414;-65
2023/09/18 04:34:03;;;;;;;21.30;6.07;;;18.60;99.90;;;;;;4943984;28;20535;-66
2023/09/18 04:36:29;;;;;;;;;;;18.50;99.90;;;;;;4951266;28;20043;-65
2023/09/18 04:38:54;;;;;;;11.00;4.80;;;18.40;99.90;;;;;;4967322;28;19922;-65
2023/09/18 04:41:23;;;;;;;;;;;18.30;99.90;;;;;;4952505;28;20039;-66
2023/09/18 04:44:19;;;;;;;12.15;5.07;;;18.20;99.90;;;;;;4953855;28;19922;-66
2023/09/18 04:50:14;;;;;;;7.50;4.60;;;18.00;99.90;;;;;;4882996;29;20191;-66
2023/09/18 04:52:54;;;;;;;10.05;5.80;;;18.00;99.90;;;;;;4918569;29;20047;-66
2023/09/18 04:55:46;;;;;;;15.73;4.97;;;17.90;99.90;;;;;;4944618;28;20409;-66
2023/09/18 04:59:09;;;;;;;11.52;5.28;;;17.90;99.90;;;;;;4946942;28;20039;-67
2023/09/18 05:01:34;;;;;;;6.57;4.18;;;17.90;99.90;;;;;;4918574;28;20065;-68
2023/09/18 05:04:24;;;;;;;8.45;4.28;;;17.90;99.90;;;;;;4949633;28;20035;-67
2023/09/18 05:06:50;;;;;;;10.82;5.10;;;17.90;99.90;;;;;;4950049;28;20158;-67
2023/09/18 05:09:15;;;;;;;;;;;17.90;99.90;;;;;;4953003;28;20602;-67
2023/09/18 05:11:41;;;;;;;12.13;4.93;;;17.90;99.90;;;;;;4953981;28;19969;-68
2023/09/18 05:14:07;;;;;;;11.18;5.55;;;17.90;99.90;;;;;;4946547;28;20149;-68
2023/09/18 05:23:05;;;;;;;9.93;4.80;;;17.90;99.90;;;;;;4923308;28;20526;-68
2023/09/18 05:25:33;;;;;;;9.70;4.22;;;17.90;99.90;;;;;;4944073;28;20134;-68
2023/09/18 05:28:00;;;;;;;8.63;4.38;;;17.90;99.90;;;;;;4927333;28;20054;-67
2023/09/18 05:30:43;;;;;;;9.65;4.55;;;17.90;99.90;;;;;;4943070;28;20051;-67
2023/09/18 05:33:15;;;;;;;7.07;4.38;;;17.90;99.90;;;;;;4951782;23;20121;-68
2023/09/18 05:35:58;;;;;;;12.70;4.90;;;17.90;99.90;;;;;;4956304;28;20137;-67
2023/09/18 05:38:24;;;;;;;;;;;17.80;99.90;;;;;;4955807;28;20169;-67
2023/09/18 05:41:19;;;;;;;10.05;4.40;;;17.80;99.90;;;;;;4981678;28;19922;-68
2023/09/18 05:44:23;;;;;;;17.70;4.78;;;17.90;99.90;;;;;;5021314;23;20083;-67
2023/09/18 05:47:03;;;;;;;13.50;4.07;;;17.90;99.90;;;;;;5021805;28;20052;-69
2023/09/18 05:49:30;;;;;;;10.57;5.00;;;18.00;99.90;;;;;;5011239;28;20306;-68
2023/09/18 05:52:29;;;;;;;7.55;4.13;;;18.00;99.90;;;;;;5008432;28;20064;-67
2023/09/18 05:54:59;;;;;;;14.13;4.70;;;18.00;99.90;;;;;;5006082;28;20064;-67
2023/09/18 05:57:31;;;;;;;7.25;4.20;;;18.00;99.90;;;;;;4970227;28;20468;-68
2023/09/18 06:00:16;;;;;;;10.38;5.00;;;17.90;99.90;;;;;;4984148;28;20123;-68
2023/09/18 06:02:58;;;;;;;13.05;4.07;;;17.90;99.90;;;;;;4941709;23;20100;-68
2023/09/18 06:05:27;;;;;;;11.43;3.65;;;17.90;99.90;;;;;;4914455;28;20259;-67
2023/09/18 06:08:10;;;;;;;17.35;4.32;;;17.90;99.90;;;;;;4763776;23;20157;-69
2023/09/18 06:10:36;;;;;;;;;;;17.90;99.90;;;;;;4967698;28;20045;-69
2023/09/18 06:13:04;;;;;;;11.38;4.28;;;17.90;99.90;;;;;;4995644;28;19917;-69
2023/09/18 06:15:30;;;;;;;11.15;4.03;;;18.00;99.90;;;;;;5004303;28;20038;-68
2023/09/18 06:17:55;;;;;;;13.18;4.43;;;18.00;99.90;;;;;;5003682;28;20034;-67
2023/09/18 06:20:21;;;;;;;;;;;18.10;99.90;;;;;;5000964;28;20032;-66
2023/09/18 06:22:47;;;;;;;14.75;4.50;;;18.20;99.90;;;;;;4996420;28;19956;-66
2023/09/18 06:25:14;;;;;;;;;;;18.30;99.90;;;;;;5002696;28;20069;-67
2023/09/18 06:27:40;;;;;;;11.60;3.70;;;18.30;99.90;;;;;;4995092;28;19917;-67
2023/09/18 06:30:06;;;;;;;;;;;18.30;99.90;;;;;;4991798;28;20092;-66
2023/09/18 06:32:32;;;;;;;13.60;4.57;;;18.30;99.90;;;;;;4990694;28;19918;-67
2023/09/18 06:34:58;;;;;;;14.27;4.30;;;18.30;99.90;;;;;;4993256;28;20394;-66
2023/09/18 06:37:24;;;;;;;;;;;18.30;99.90;;;;;;4993115;28;20041;-66
2023/09/18 06:39:49;;;;;;;13.40;4.93;;;18.40;99.90;;;;;;4989627;28;19987;-67
2023/09/18 06:42:15;;;;;;;;;;;18.40;99.90;;;;;;5002089;28;20029;-67
2023/09/18 06:44:41;;;;;;;13.73;4.57;;;18.40;99.90;;;;;;4997718;28;20305;-66
2023/09/18 06:47:06;;;;;;;19.50;4.65;;;18.40;99.90;;;;;;4993629;28;20113;-65
2023/09/18 06:49:32;;;;;;;;;;;18.30;99.90;;;;;;4992336;28;20046;-68
2023/09/18 06:51:58;;;;;;;8.32;3.47;;;18.40;99.90;;;;;;4985055;28;19956;-66
2023/09/18 06:54:24;;;;;;;13.43;4.13;;;18.40;99.90;;;;;;4985179;28;20687;-65
2023/09/18 06:56:49;;;;;;;;;;;18.40;99.90;;;;;;5004332;28;20099;-68
2023/09/18 06:59:15;;;;;;;16.42;3.83;;;18.40;99.90;;;;;;4993262;28;19925;-68
2023/09/18 07:01:41;;;;;;;11.05;3.45;;;18.40;99.90;;;;;;4990907;28;20133;-68
2023/09/18 07:04:07;;;;;;;;;;;18.40;99.90;;;;;;4999067;28;20496;-68
2023/09/18 07:06:32;;;;;;;11.77;3.47;;;18.40;99.90;;;;;;5002546;28;19921;-68
2023/09/18 07:08:59;;;;;;;14.00;3.65;;;18.40;99.90;;;;;;4996275;28;20046;-67
2023/09/18 07:11:24;;;;;;;7.07;3.20;;;18.40;99.90;;;;;;4987280;28;20045;-67
2023/09/18 07:13:50;;;;;;;;;;;18.40;99.90;;;;;;4996133;28;20516;-68
2023/09/18 07:16:16;;;;;;;10.38;3.00;;;18.40;99.90;;;;;;4993852;28;20031;-68
2023/09/18 07:18:41;;;;;;;8.88;3.50;;;18.40;99.90;;;;;;5003110;28;20105;-68
2023/09/18 07:21:07;;;;;;;14.85;3.72;;;18.40;99.90;;;;;;5002008;28;20139;-67
2023/09/18 07:23:36;;;;;;;14.30;3.55;;;18.40;99.90;;;;;;4991727;28;20038;-66
2023/09/18 07:26:02;;;;;;;9.68;2.90;;;18.40;99.90;;;;;;4990349;28;20042;-67
2023/09/18 07:28:28;;;;;;;;;;;18.40;99.90;;;;;;4990141;28;20050;-68
2023/09/18 07:30:53;;;;;;;12.65;3.33;;;18.30;99.90;;;;;;5000899;28;20340;-65
2023/09/18 07:33:20;;;;;;;11.13;3.38;;;18.40;99.90;;;;;;4987639;28;20037;-68
2023/09/18 07:35:51;;;;;;;13.27;2.80;;;18.40;99.90;;;;;;5003792;28;20125;-67
2023/09/18 07:38:19;;;;;;;10.00;3.25;;;18.40;99.90;;;;;;5005054;28;20030;-71
2023/09/18 07:40:45;;;;;;;16.73;2.60;;;18.30;99.90;;;;;;5001296;28;20039;-71
2023/09/18 07:43:11;;;;;;;8.18;2.58;;;18.40;99.90;;;;;;4986195;28;20069;-70
2023/09/18 07:45:38;;;;;;;;;;;18.30;99.90;;;;;;4999222;28;20895;-70
2023/09/18 07:48:04;;;;;;;;;;;18.30;99.90;;;;;;4998803;28;20465;-71
2023/09/18 07:50:31;;;;;;;9.70;2.88;;;18.30;99.90;;;;;;4996056;28;19917;-70
2023/09/18 07:52:57;;;;;;;13.10;2.55;;;18.30;99.90;;;;;;4991580;28;20050;-70
2023/09/18 07:55:22;;;;;;;;;;;18.30;99.90;;;;;;5001565;28;20128;-70
2023/09/18 07:57:49;;;;;;;11.98;2.97;;;18.30;99.90;;;;;;4994362;28;20277;-71
2023/09/18 08:00:15;;;;;;;12.00;3.10;;;18.30;99.90;;;;;;4966632;28;20494;-70
2023/09/18 08:02:41;;;;;;;11.93;2.95;;;18.30;99.90;;;;;;4988063;28;21921;-71
2023/09/18 08:05:08;;;;;;;15.30;1.98;;;18.30;99.90;;;;;;5001006;28;20044;-71
2023/09/18 08:07:35;;;;;;;8.85;2.70;;;18.30;99.90;;;;;;5001567;28;20050;-69
2023/09/18 08:10:06;;;;;;;11.35;3.55;;;18.40;99.90;;;;;;4897223;28;20036;-69
2023/09/18 08:12:35;;;;;;;6.28;2.70;;;18.30;99.90;;;;;;4939634;28;23010;-70
2023/09/18 08:15:12;;;;;;;6.45;2.08;;;18.40;99.90;;;;;;4916898;28;20165;-71
2023/09/18 08:17:50;;;;;;;6.20;2.17;;;18.40;99.90;;;;;;4900997;28;20046;-71
2023/09/18 08:20:45;;;;;;;8.38;2.20;;;18.40;99.90;;;;;;4848141;28;21499;-67
2023/09/18 08:23:23;;;;;;;11.50;2.67;;;18.40;99.90;;;;;;4863567;28;20041;-67
2023/09/18 08:25:55;;;;;;;12.07;2.50;;;18.40;99.90;;;;;;4892561;23;20266;-66
2023/09/18 08:28:21;;;;;;;12.60;2.17;;;18.40;99.90;;;;;;4923977;23;20045;-68
2023/09/18 08:30:56;;;;;;;7.53;2.30;;;18.40;99.90;;;;;;4916429;28;20026;-67
2023/09/18 08:33:36;;;;;;;9.63;2.88;;;18.40;99.90;;;;;;4847182;28;20043;-68
2023/09/18 08:36:02;;;;;;;9.23;2.53;;;18.40;99.90;;;;;;4866991;28;20124;-68
2023/09/18 08:38:43;;;;;;;14.15;2.38;;;18.40;99.90;;;;;;4833261;28;20099;-66
2023/09/18 08:41:13;;;;;;;9.23;2.22;;;18.40;99.90;;;;;;4867076;28;20042;-68
2023/09/18 08:43:42;;;;;;;8.48;2.45;;;18.30;99.90;;;;;;4880434;28;20042;-67
2023/09/18 08:46:09;;;;;;;8.82;2.35;;;18.40;99.90;;;;;;4846821;23;20050;-66
2023/09/18 08:48:44;;;;;;;9.25;2.42;;;18.30;99.90;;;;;;4851721;28;20942;-66
2023/09/18 08:51:12;;;;;;;8.82;2.63;;;18.40;99.90;;;;;;4913346;23;20049;-68
2023/09/18 08:54:29;;;;;;;7.53;2.78;;;18.30;99.90;;;;;;4855576;23;21114;-67
2023/09/18 08:56:55;;;;;;;8.88;2.20;;;18.30;99.90;;;;;;4848350;28;20042;-68
2023/09/18 08:59:24;;;;;;;14.15;2.70;;;18.40;99.90;;;;;;4839060;28;20084;-67
2023/09/18 09:01:50;;;;;;;10.07;2.58;;;18.40;99.90;;;;;;4752412;28;20140;-68
2023/09/18 09:04:26;;;;;;;5.60;2.03;;;18.40;99.90;;;;;;4839298;28;20720;-72
2023/09/18 09:06:51;;;;;;;;;;;18.50;99.90;;;;;;4910098;28;20045;-68
2023/09/18 09:09:19;;;;;;;6.43;2.10;;;18.50;99.90;;;;;;4937744;23;19957;-67
2023/09/18 09:11:51;;;;;;;9.32;2.90;;;18.40;99.90;;;;;;4821931;28;20050;-67
2023/09/18 09:14:18;;;;;;;6.05;1.95;;;18.50;99.90;;;;;;4887777;22;20046;-67
2023/09/18 09:16:48;;;;;;;5.80;1.63;;;18.50;99.90;;;;;;4896600;28;20070;-67
2023/09/18 09:19:53;;;;;;;9.48;1.80;;;18.50;99.90;;;;;;4935981;28;20164;-68
2023/09/18 09:22:20;;;;;;;5.20;1.55;;;18.50;99.90;;;;;;4900179;28;20054;-67
2023/09/18 09:25:27;;;;;;;3.40;1.73;;;18.60;99.90;;;;;;4882378;28;20046;-67
2023/09/18 09:28:12;;;;;;;6.68;2.15;;;18.60;99.90;;;;;;4865999;28;20732;-67
2023/09/18 09:31:03;;;;;;;9.23;1.83;;;18.50;99.90;;;;;;4942311;23;20050;-67
2023/09/18 09:34:05;;;;;;;9.40;1.58;;;18.50;99.90;;;;;;4846614;29;20050;-69
2023/09/18 09:36:35;;;;;;;8.05;1.83;;;18.60;99.90;;;;;;4855267;29;20050;-68
2023/09/18 09:39:21;;;;;;;8.70;2.00;;;18.70;99.90;;;;;;4827111;29;21976;-67
2023/09/18 09:42:06;;;;;;;6.65;1.80;;;18.80;99.90;;;;;;4822671;29;20779;-67
2023/09/18 09:47:25;;;;;;;10.05;1.70;;;18.90;99.90;;;;;;4933462;28;20276;-67
2023/09/18 09:50:10;;;;;;;5.90;1.55;;;19.00;99.90;;;;;;4940850;28;20637;-69
2023/09/18 09:52:44;;;;;;;5.38;1.60;;;19.20;99.90;;;;;;4938759;28;20042;-70
2023/09/18 09:55:29;;;;;;;9.50;1.42;;;19.30;99.90;;;;;;4918248;23;20590;-73
2023/09/18 09:58:14;;;;;;;7.25;1.98;;;19.20;99.90;;;;;;4926307;28;20048;-72
2023/09/18 10:00:49;;;;;;;7.10;1.35;;;19.20;99.90;;;;;;4913111;28;20698;-68
2023/09/18 10:03:20;;;;;;;6.78;1.52;;;19.20;99.90;;;;;;4918692;28;20496;-70
2023/09/18 10:05:53;;;;;;;5.63;1.55;;;19.10;99.90;;;;;;4942829;23;20324;-70
2023/09/18 10:08:39;;;;;;;5.93;2.10;;;19.20;99.90;;;;;;4922721;28;20092;-68
2023/09/18 10:11:25;;;;;;;13.45;2.25;;;19.20;99.90;;;;;;4932088;28;20045;-69
2023/09/18 10:13:59;;;;;;;6.18;1.45;;;19.40;99.90;;;;;;4945840;28;20605;-67
2023/09/18 10:16:54;;;;;;;8.88;1.77;;;19.40;99.90;;;;;;4882327;23;20085;-68
2023/09/18 10:19:59;;;;;;;5.63;1.83;;;19.50;99.90;;;;;;4921341;28;20037;-69
2023/09/18 10:22:49;;;;;;;4.47;1.38;;;19.50;99.90;;;;;;4874933;28;20133;-66
2023/09/18 10:25:35;;;;;;;6.93;1.33;;;19.40;99.90;;;;;;4870395;28;20062;-70
2023/09/18 10:28:12;;;;;;;9.18;1.60;;;19.40;99.90;;;;;;4893981;23;20039;-67
2023/09/18 10:30:51;;;;;;;1.88;1.20;;;19.30;99.90;;;;;;4899810;28;20120;-67
2023/09/18 10:33:39;;;;;;;8.82;1.65;;;19.30;99.90;;;;;;4911277;28;20145;-68
2023/09/18 10:36:06;;;;;;;11.45;1.70;;;19.20;99.90;;;;;;4971825;28;20051;-69
2023/09/18 10:38:33;;;;;;;8.18;1.95;;;19.20;99.90;;;;;;4987325;28;20434;-69
2023/09/18 10:41:00;;;;;;;3.72;1.42;;;19.10;99.90;;;;;;4975945;28;20395;-69
2023/09/18 10:43:26;;;;;;;4.35;1.50;;;19.10;99.90;;;;;;4977017;28;20380;-70
2023/09/18 10:45:51;;;;;;;;;;;19.10;99.90;;;;;;4987678;28;20040;-67
2023/09/18 10:48:20;;;;;;;4.93;1.25;;;19.00;99.90;;;;;;4992009;28;19926;-67
2023/09/18 10:50:45;;;;;;;3.97;1.58;;;19.10;99.90;;;;;;4990905;28;20086;-69
2023/09/18 10:53:12;;;;;;;;;;;19.10;99.90;;;;;;4989726;28;20034;-69
2023/09/18 10:55:38;;;;;;;4.47;1.50;;;19.00;99.90;;;;;;4992191;28;19925;-68
2023/09/18 10:58:04;;;;;;;8.00;1.52;;;19.00;99.90;;;;;;4986097;28;20376;-69
2023/09/18 11:00:31;;;;;;;;;;;19.00;99.90;;;;;;4983257;28;20129;-68
2023/09/18 11:03:14;;;;;;;11.32;2.15;;;19.00;99.90;;;;;;4984756;28;20089;-69
2023/09/18 11:05:40;;;;;;;4.45;1.05;;;18.90;99.90;;;;;;4983610;28;20056;-70
2023/09/18 11:08:25;;;;;;;;;;;18.90;99.90;;;;;;4987560;28;20046;-70
2023/09/18 11:11:09;;;;;;;4.55;1.35;;;18.90;99.90;;;;;;4978124;28;19929;-70
2023/09/18 11:13:38;;;;;;;9.68;1.60;;;18.90;99.90;;;;;;4981204;28;20065;-68
2023/09/18 11:16:17;;;;;;;5.38;1.65;;;19.00;99.90;;;;;;4973948;28;20046;-69
2023/09/18 11:18:45;;;;;;;4.60;1.50;;;19.00;99.90;;;;;;4975167;28;20384;-69
2023/09/18 11:21:12;;;;;;;5.90;1.35;;;19.00;99.90;;;;;;4976322;28;20042;-70
2023/09/18 11:23:45;;;;;;;6.32;1.20;;;18.90;99.90;;;;;;4980805;28;20433;-70
2023/09/18 11:26:11;;;;;;;5.00;1.20;;;19.00;99.90;;;;;;4976559;28;20178;-70
2023/09/18 11:28:37;;;;;;;6.10;1.20;;;19.00;99.90;;;;;;4954466;28;20035;-70
2023/09/18 11:31:04;;;;;;;3.72;1.40;;;19.00;99.90;;;;;;4970636;28;20042;-70
2023/09/18 11:33:40;;;;;;;6.03;1.30;;;19.00;99.90;;;;;;4955419;28;20042;-70
2023/09/18 11:36:07;;;;;;;;;;;19.00;99.90;;;;;;4979513;28;20046;-70
2023/09/18 11:38:35;;;;;;;7.18;1.35;;;19.00;99.90;;;;;;4978425;28;19926;-70
2023/09/18 11:41:19;;;;;;;5.28;1.40;;;19.00;99.90;;;;;;4977804;28;20046;-70
2023/09/18 11:43:45;;;;;;;5.65;1.52;;;19.10;99.90;;;;;;4978268;28;20050;-70
2023/09/18 11:46:12;;;;;;;;;;;19.10;99.90;;;;;;4981313;28;20554;-71
2023/09/18 11:48:41;;;;;;;4.13;1.33;;;19.20;99.90;;;;;;4982487;28;20444;-70
2023/09/18 11:51:10;;;;;;;2.22;1.20;;;19.30;99.90;;;;;;4983700;28;20145;-70
2023/09/18 11:53:40;;;;;;;4.82;1.00;;;19.30;99.90;;;;;;4979283;28;20088;-71
2023/09/18 11:56:14;;;;;;;8.77;1.40;;;19.30;99.90;;;;;;4983943;28;20059;-71
2023/09/18 11:58:51;;;;;;;5.32;1.20;;;19.30;99.90;;;;;;4983824;28;20769;-70
2023/09/18 12:01:18;;;;;;;4.95;1.27;;;19.30;99.90;;;;;;4973376;28;20034;-70
2023/09/18 12:03:44;;;;;;;5.35;1.30;;;19.20;99.90;;;;;;4976183;28;20069;-71
2023/09/18 12:06:13;;;;;;;4.53;1.30;;;19.20;99.90;;;;;;4979460;28;20078;-70
2023/09/18 12:08:40;;;;;;;3.42;0.80;;;19.20;99.90;;;;;;4977982;28;20051;-71
2023/09/18 12:11:06;;;;;;;6.00;2.03;;;19.10;99.90;;;;;;4986630;28;20502;-72
2023/09/18 12:13:32;;;;;;;3.67;1.23;;;19.10;99.90;;;;;;4984324;28;20049;-71
2023/09/18 12:16:04;;;;;;;;;;;19.10;99.90;;;;;;4981840;28;20043;-71
2023/09/18 12:18:30;;;;;;;3.90;1.20;;;19.10;99.90;;;;;;4977263;28;19918;-71
2023/09/18 12:21:04;;;;;;;;;;;19.10;99.90;;;;;;4986509;28;20080;-71
2023/09/18 12:23:36;;;;;;;4.13;1.20;;;19.20;99.90;;;;;;4987359;28;19975;-70
2023/09/18 12:26:03;;;;;;;8.50;1.40;;;19.30;99.90;;;;;;4988049;28;20047;-70
2023/09/18 12:28:29;;;;;;;3.90;1.20;;;19.40;99.90;;;;;;4973544;28;20046;-71
2023/09/18 12:30:56;;;;;;;;;;;19.50;99.90;;;;;;4987448;28;20484;-71
2023/09/18 12:33:22;;;;;;;;;;;19.50;99.90;;;;;;4986465;28;19973;-71
2023/09/18 12:35:48;;;;;;;4.28;1.23;;;19.60;99.90;;;;;;4995266;28;20290;-70
2023/09/18 12:38:16;;;;;;;4.90;1.17;;;19.60;99.90;;;;;;4993942;28;20971;-70
2023/09/18 12:40:44;;;;;;;2.50;1.00;;;19.60;99.90;;;;;;4987131;28;20034;-71
2023/09/18 12:43:10;;;;;;;3.25;0.93;;;19.70;99.90;;;;;;4991096;28;20041;-70
2023/09/18 12:45:36;;;;;;;4.22;1.60;;;19.90;99.90;;;;;;4991433;28;20092;-71
2023/09/18 12:48:03;;;;;;;3.45;1.58;;;20.00;99.90;;;;;;4980959;28;20039;-71
2023/09/18 12:50:29;;;;;;;3.45;1.00;;;20.00;99.90;;;;;;4980315;28;20181;-71
2023/09/18 12:53:13;;;;;;;3.75;1.17;;;20.10;99.90;;;;;;4982989;28;20141;-71
2023/09/18 12:55:40;;;;;;;3.08;1.40;;;20.20;99.90;;;;;;4980699;28;20065;-71
2023/09/18 12:58:18;;;;;;;4.80;1.50;;;20.30;99.90;;;;;;4976417;28;20059;-71
2023/09/18 13:00:50;;;;;;;8.13;1.17;;;20.30;99.90;;;;;;4974631;28;20050;-71
2023/09/18 13:03:16;;;;;;;3.22;1.10;;;20.50;99.90;;;;;;4985311;28;20032;-71
2023/09/18 13:05:43;;;;;;;5.10;1.00;;;20.30;99.90;;;;;;4984715;28;20496;-71
2023/09/18 13:08:21;;;;;;;5.28;1.27;;;20.30;99.90;;;;;;4994185;28;20046;-71
2023/09/18 13:10:58;;;;;;;3.83;1.63;;;20.30;99.90;;;;;;4982885;28;20048;-71
2023/09/18 13:13:29;;;;;;;5.90;1.40;;;20.30;99.90;;;;;;4990264;28;20046;-71
2023/09/18 13:16:00;;;;;;;4.13;1.20;;;20.20;99.90;;;;;;4984141;28;20045;-69
2023/09/18 13:18:27;;;;;;;3.38;1.40;;;20.10;99.90;;;;;;4984912;28;20129;-68
2023/09/18 13:20:56;;;;;;;5.82;1.67;;;20.10;99.90;;;;;;4979963;28;20042;-68
2023/09/18 13:23:32;;;;;;;1.95;1.17;;;20.20;99.90;;;;;;4984541;28;20031;-66
2023/09/18 13:26:07;;;;;;;8.63;1.07;;;20.20;99.90;;;;;;4984412;28;20093;-66
2023/09/18 13:28:34;;;;;;;5.75;1.02;;;20.20;99.90;;;;;;4980015;28;20069;-66
2023/09/18 13:31:07;;;;;;;9.98;1.30;;;20.30;99.90;;;;;;4975942;28;20038;-65
2023/09/18 13:33:44;;;;;;;7.75;1.08;;;20.40;99.90;;;;;;4979656;28;20038;-66
2023/09/18 13:36:10;;;;;;;4.35;1.42;;;20.40;99.90;;;;;;4984519;28;20046;-68
2023/09/18 13:38:35;;;;;;;6.18;0.93;;;20.30;99.90;;;;;;4994296;28;20768;-71
2023/09/18 13:41:01;;;;;;;4.72;1.17;;;20.30;99.90;;;;;;4980280;28;20061;-67
2023/09/18 13:43:27;;;;;;;2.50;1.05;;;20.30;99.90;;;;;;4978181;28;20039;-68
2023/09/18 13:45:54;;;;;;;3.60;1.08;;;20.30;99.90;;;;;;4961999;28;20034;-68
2023/09/18 13:48:20;;;;;;;1.98;1.08;;;20.40;99.90;;;;;;4985008;28;20043;-67
2023/09/18 13:50:47;;;;;;;3.10;1.13;;;20.50;99.90;;;;;;5002707;28;20070;-68
2023/09/18 13:53:13;;;;;;;4.55;0.95;;;20.40;99.90;;;;;;4997187;28;20046;-68
2023/09/18 13:55:39;;;;;;;4.70;1.00;;;20.40;99.90;;;;;;4985202;28;20042;-68
2023/09/18 13:58:05;;;;;;;5.70;1.10;;;20.40;99.90;;;;;;4985136;28;20742;-66
2023/09/18 14:00:31;;;;;;;2.95;1.00;;;20.30;99.90;;;;;;4998634;28;20065;-69
2023/09/18 14:02:57;;;;;;;4.28;1.30;;;20.30;99.90;;;;;;4985850;28;20027;-66
2023/09/18 14:05:23;;;;;;;3.17;1.30;;;20.20;99.90;;;;;;4985231;28;20041;-68
2023/09/18 14:07:48;;;;;;;4.10;1.23;;;20.00;99.90;;;;;;4984601;28;20062;-68
2023/09/18 14:10:15;;;;;;;4.35;1.02;;;19.80;99.90;;;;;;4979528;28;20062;-68